Terminal Aerodrome Forecast
Issued by NWS Jackson, MS

Home | Current Version | Previous Version | Text Only | Print | Product List | Glossary On
Versions: 1 2 3 4 5 6 7 8 9 10 11 12 13 14 15 16 17
803
FTUS44 KJAN 302127 AAA
TAFMEI
TAF AMD
KMEI 302127Z 3021/0118 23020G40KT 2SM TSRA BKN025CB OVC120
     FM302330 22010KT P6SM -SHRA SCT025 BKN060 OVC120
     FM010200 23010KT P6SM SCT015 OVC120
     FM010800 17007KT P6SM OVC020
     FM011000 21008KT 5SM -SHRA OVC015=

USA.gov is the U.S. government's official web portal to all federal, state and local government web resources and services.